Time;durP1;ratioP1;P1;durP2;ratioP2;P2;SDS_P1;SDS_P2;PMS_P1;PMS_P2;Temp;Humidity;BMP_temperature;BMP_pressure;BME280_temperature;BME280_humidity;BME280_pressure;Samples;Min_cycle;Max_cycle;Signal;HPM_P1;HPM_P2
2021/10/18 00:01:26;;;;;;;74.25;39.73;;;;;;;3.33;76.44;95042.56;1697303;83;21722;-68
2021/10/18 00:03:54;;;;;;;65.12;34.78;;;;;;;3.34;76.54;95046.27;1694786;83;21161;-67
2021/10/18 00:06:21;;;;;;;64.80;34.48;;;;;;;3.38;76.34;95035.38;1701997;83;22284;-67
2021/10/18 00:08:50;;;;;;;72.08;34.08;;;;;;;3.40;76.31;95037.13;1693758;83;21134;-68
2021/10/18 00:11:19;;;;;;;71.95;33.83;;;;;;;3.41;76.58;95036.71;1695067;83;20975;-68
2021/10/18 00:13:47;;;;;;;58.30;32.03;;;;;;;3.49;76.72;95036.28;1704600;83;21155;-67
2021/10/18 00:16:14;;;;;;;48.83;27.22;;;;;;;3.57;76.66;95044.63;1697773;82;21113;-68
2021/10/18 00:18:41;;;;;;;85.50;41.63;;;;;;;3.56;76.52;95041.72;1695376;83;21620;-67
2021/10/18 00:21:09;;;;;;;79.75;38.55;;;;;;;3.48;76.69;95044.06;1695490;83;21133;-66
2021/10/18 00:23:36;;;;;;;93.85;42.93;;;;;;;3.40;76.94;95038.48;1697667;83;21039;-68
2021/10/18 00:26:03;;;;;;;76.80;37.33;;;;;;;3.40;77.14;95039.84;1691442;83;21192;-67
2021/10/18 00:28:32;;;;;;;104.87;49.60;;;;;;;3.40;77.18;95026.25;1716582;82;21109;-67
2021/10/18 00:30:58;;;;;;;66.25;33.25;;;;;;;3.41;77.46;95029.91;1694369;83;21032;-68
2021/10/18 00:33:26;;;;;;;68.45;33.42;;;;;;;3.44;77.62;95027.76;1691541;83;21498;-68
2021/10/18 00:35:54;;;;;;;60.05;33.92;;;;;;;3.51;77.65;95024.42;1705561;83;21114;-67
2021/10/18 00:38:20;;;;;;;45.48;24.18;;;;;;;3.56;77.55;95020.53;1708448;83;21948;-68
2021/10/18 00:40:47;;;;;;;58.10;28.75;;;;;;;3.56;77.35;95026.77;1692326;83;21429;-66
2021/10/18 00:43:13;;;;;;;51.85;28.02;;;;;;;3.42;76.91;95026.63;1689947;83;21052;-67
2021/10/18 00:45:40;;;;;;;49.67;27.15;;;;;;;3.33;77.50;95020.25;1695922;83;21049;-66
2021/10/18 00:48:07;;;;;;;53.30;26.30;;;;;;;3.38;77.23;95020.43;1701357;83;21016;-68
2021/10/18 00:50:33;;;;;;;55.70;28.87;;;;;;;3.38;76.89;95023.15;1684227;83;21817;-67
2021/10/18 00:53:00;;;;;;;52.50;26.75;;;;;;;3.36;76.87;95024.09;1652785;83;21004;-68
2021/10/18 00:55:27;;;;;;;41.58;23.70;;;;;;;3.39;76.67;95017.90;1691507;83;21481;-67
2021/10/18 00:57:55;;;;;;;46.75;24.27;;;;;;;3.37;76.32;95017.49;1703623;83;21048;-67
2021/10/18 01:00:21;;;;;;;40.60;23.12;;;;;;;3.31;76.38;95022.58;1683449;83;21126;-68
2021/10/18 01:02:48;;;;;;;37.58;22.48;;;;;;;3.35;76.72;95033.42;1684552;82;21213;-68
2021/10/18 01:05:14;;;;;;;35.03;21.57;;;;;;;3.35;76.61;95026.06;1684294;82;21525;-68
2021/10/18 01:07:41;;;;;;;42.85;22.93;;;;;;;3.31;76.87;95034.03;1692711;83;21077;-69
2021/10/18 01:10:09;;;;;;;38.00;21.23;;;;;;;3.30;77.15;95035.20;1661845;83;21052;-67
2021/10/18 01:12:35;;;;;;;26.85;16.95;;;;;;;3.32;77.12;95031.50;1683311;83;21038;-68
2021/10/18 01:15:04;;;;;;;32.03;19.12;;;;;;;3.34;77.38;95029.16;1690134;83;21151;-65
2021/10/18 01:17:33;;;;;;;29.65;19.02;;;;;;;3.33;77.68;95031.12;1703678;83;21032;-67
2021/10/18 01:20:01;;;;;;;27.10;19.02;;;;;;;3.39;77.65;95027.41;1702230;83;21467;-68
2021/10/18 01:22:28;;;;;;;31.33;19.82;;;;;;;3.44;77.94;95035.92;1688282;83;21265;-67
2021/10/18 01:24:55;;;;;;;29.18;17.87;;;;;;;3.53;78.09;95034.33;1688172;82;20986;-67
2021/10/18 01:27:21;;;;;;;34.18;22.75;;;;;;;3.61;77.57;95033.14;1711337;83;21790;-68
2021/10/18 01:29:48;;;;;;;54.15;33.98;;;;;;;3.57;77.40;95032.95;1691203;83;21065;-68
2021/10/18 01:32:15;;;;;;;43.28;24.30;;;;;;;3.48;77.47;95030.66;1696057;83;21527;-67
2021/10/18 01:34:42;;;;;;;43.38;25.65;;;;;;;3.48;77.90;95029.11;1703736;83;21026;-68
2021/10/18 01:37:09;;;;;;;34.40;21.68;;;;;;;3.51;77.76;95029.87;1692749;83;21003;-67
2021/10/18 01:39:36;;;;;;;25.20;17.12;;;;;;;3.53;77.56;95039.77;1696549;83;21825;-68
2021/10/18 01:42:04;;;;;;;32.40;17.90;;;;;;;3.50;77.81;95052.80;1697075;82;21133;-67
2021/10/18 01:44:32;;;;;;;31.42;19.50;;;;;;;3.48;77.85;95052.42;1699849;82;21023;-69
2021/10/18 01:46:58;;;;;;;29.65;19.90;;;;;;;3.46;77.90;95043.69;1710656;83;20984;-67
2021/10/18 01:49:25;;;;;;;27.77;17.65;;;;;;;3.48;78.25;95046.98;1684499;83;21678;-67
2021/10/18 01:51:52;;;;;;;27.30;16.40;;;;;;;3.53;78.02;95039.77;1696065;82;21832;-66
2021/10/18 01:54:18;;;;;;;18.77;14.23;;;;;;;3.57;77.77;95042.48;1691885;83;21149;-68
2021/10/18 01:56:45;;;;;;;17.57;13.22;;;;;;;3.57;77.64;95045.98;1690485;83;21027;-68
2021/10/18 01:59:12;;;;;;;17.55;12.30;;;;;;;3.59;77.55;95047.72;1689170;83;21049;-68
2021/10/18 02:01:38;;;;;;;23.62;15.23;;;;;;;3.60;77.54;95051.20;1689865;82;20978;-66
2021/10/18 02:04:05;;;;;;;21.48;15.58;;;;;;;3.61;77.76;95047.31;1686516;83;21087;-68
2021/10/18 02:06:32;;;;;;;21.48;15.58;;;;;;;3.62;77.29;95052.94;1701124;83;21044;-67
2021/10/18 02:08:59;;;;;;;28.75;18.70;;;;;;;3.61;77.36;95058.98;1695526;83;21474;-66
2021/10/18 02:11:25;;;;;;;19.50;13.68;;;;;;;3.57;77.43;95056.86;1688608;83;21101;-67
2021/10/18 02:13:52;;;;;;;26.45;15.40;;;;;;;3.51;77.20;95052.22;1696709;83;21092;-66
2021/10/18 02:16:19;;;;;;;22.58;18.32;;;;;;;3.38;77.33;95056.53;1690269;83;21134;-66
2021/10/18 02:18:45;;;;;;;18.52;14.83;;;;;;;3.39;78.08;95055.97;1698383;83;21032;-66
2021/10/18 02:21:12;;;;;;;22.37;18.60;;;;;;;3.41;77.80;95055.74;1696023;83;21026;-68
2021/10/18 02:23:38;;;;;;;33.33;23.12;;;;;;;3.48;78.12;95056.31;1690398;83;20984;-68
2021/10/18 02:26:05;;;;;;;23.00;16.97;;;;;;;3.59;77.74;95055.88;1710085;83;21154;-67
2021/10/18 02:28:32;;;;;;;18.57;13.93;;;;;;;3.64;77.49;95055.47;1693206;83;21090;-64
2021/10/18 02:30:59;;;;;;;16.12;12.23;;;;;;;3.67;77.39;95050.59;1693838;83;21043;-67
2021/10/18 02:33:25;;;;;;;18.05;13.43;;;;;;;3.71;77.19;95055.42;1704386;83;21185;-68
2021/10/18 02:35:52;;;;;;;45.25;28.25;;;;;;;3.70;77.40;95051.75;1697867;83;21565;-68
2021/10/18 02:38:18;;;;;;;31.62;17.52;;;;;;;3.75;77.09;95054.84;1695943;83;21420;-67
2021/10/18 02:40:45;;;;;;;22.22;15.50;;;;;;;3.70;76.89;95056.59;1700992;83;21806;-67
2021/10/18 02:43:11;;;;;;;21.52;14.98;;;;;;;3.57;77.04;95058.23;1680611;83;21066;-67
2021/10/18 02:45:38;;;;;;;26.10;16.60;;;;;;;3.48;77.18;95054.95;1698666;83;21039;-67
2021/10/18 02:48:05;;;;;;;19.52;13.58;;;;;;;3.44;77.76;95055.55;1701258;82;21066;-67
2021/10/18 02:50:31;;;;;;;21.75;14.93;;;;;;;3.50;77.74;95048.72;1700483;83;20976;-68
2021/10/18 02:52:58;;;;;;;21.40;14.35;;;;;;;3.57;77.73;95052.78;1692059;83;21064;-68
2021/10/18 02:55:24;;;;;;;22.90;15.25;;;;;;;3.61;77.61;95055.47;1682436;83;21082;-67
2021/10/18 02:57:52;;;;;;;24.30;15.70;;;;;;;3.63;77.57;95051.77;1695534;83;21000;-67
2021/10/18 03:00:18;;;;;;;16.12;12.68;;;;;;;3.62;77.66;95051.01;1684206;83;21353;-66
2021/10/18 03:02:45;;;;;;;26.82;14.83;;;;;;;3.67;77.70;95051.19;1686195;83;21064;-68
2021/10/18 03:05:13;;;;;;;25.52;16.05;;;;;;;3.68;77.55;95049.42;1692522;83;21116;-68
2021/10/18 03:07:40;;;;;;;25.30;15.83;;;;;;;3.68;77.36;95050.02;1682847;82;21515;-68
2021/10/18 03:10:08;;;;;;;24.00;16.23;;;;;;;3.63;77.45;95047.69;1690217;82;21006;-68
2021/10/18 03:12:36;;;;;;;17.60;13.38;;;;;;;3.68;77.49;95050.02;1693947;83;20984;-67
2021/10/18 03:15:05;;;;;;;23.07;15.75;;;;;;;3.73;77.37;95047.64;1692516;83;21078;-69
2021/10/18 03:17:32;;;;;;;23.87;16.15;;;;;;;3.62;76.84;95046.92;1696053;82;21139;-69
2021/10/18 03:19:59;;;;;;;18.10;13.35;;;;;;;3.45;77.20;95053.78;1686881;83;20988;-69
2021/10/18 03:22:25;;;;;;;21.07;14.75;;;;;;;3.40;77.40;95049.36;1701181;83;21601;-69
2021/10/18 03:24:52;;;;;;;18.65;14.13;;;;;;;3.38;77.79;95057.13;1692024;83;21125;-67
2021/10/18 03:27:21;;;;;;;21.95;15.48;;;;;;;3.46;77.91;95051.25;1702381;83;37286;-68
2021/10/18 03:29:48;;;;;;;20.20;13.60;;;;;;;3.60;78.13;95048.48;1688294;83;21144;-67
2021/10/18 03:32:15;;;;;;;19.15;14.23;;;;;;;3.74;77.85;95055.23;1692054;83;21100;-67
2021/10/18 03:34:42;;;;;;;21.82;13.98;;;;;;;3.76;77.32;95056.39;1688701;83;20999;-68
2021/10/18 03:37:09;;;;;;;17.12;12.35;;;;;;;3.71;77.05;95059.50;1698695;83;21048;-68
2021/10/18 03:39:35;;;;;;;26.50;15.95;;;;;;;3.68;77.23;95056.22;1694094;83;21200;-68
2021/10/18 03:42:02;;;;;;;21.42;14.07;;;;;;;3.58;76.94;95060.34;1686104;83;21932;-68
2021/10/18 03:44:29;;;;;;;14.68;12.13;;;;;;;3.49;77.09;95064.09;1697459;82;21079;-68
2021/10/18 03:46:56;;;;;;;22.65;15.20;;;;;;;3.42;77.63;95055.17;1692917;83;21126;-66
2021/10/18 03:49:22;;;;;;;22.62;15.40;;;;;;;3.43;77.48;95056.72;1688940;82;21100;-68
2021/10/18 03:51:49;;;;;;;21.87;14.38;;;;;;;3.40;77.75;95063.71;1694571;83;21008;-67
2021/10/18 03:54:16;;;;;;;16.70;11.33;;;;;;;3.42;77.82;95053.21;1688938;83;21071;-68
2021/10/18 03:56:42;;;;;;;16.90;12.82;;;;;;;3.46;77.60;95061.37;1703466;83;21039;-67
2021/10/18 03:59:09;;;;;;;15.63;11.48;;;;;;;3.40;77.25;95060.23;1680405;83;21026;-68
2021/10/18 04:01:37;;;;;;;24.60;19.02;;;;;;;3.30;77.29;95052.88;1697297;83;20996;-67
2021/10/18 04:04:04;;;;;;;23.92;16.82;;;;;;;3.14;77.70;95059.31;1704019;83;21110;-66
2021/10/18 04:06:31;;;;;;;22.82;16.32;;;;;;;3.05;78.39;95057.00;1708738;83;21231;-69
2021/10/18 04:08:58;;;;;;;22.98;15.98;;;;;;;3.18;78.99;95057.36;1683102;83;21498;-68
2021/10/18 04:11:24;;;;;;;19.25;14.50;;;;;;;3.36;78.65;95056.73;1689841;83;21016;-68
2021/10/18 04:13:52;;;;;;;14.90;11.50;;;;;;;3.37;77.87;95059.63;1686111;83;21565;-69
2021/10/18 04:16:20;;;;;;;23.30;17.20;;;;;;;3.41;77.78;95059.82;1693912;83;21059;-68
2021/10/18 04:18:47;;;;;;;21.95;16.48;;;;;;;3.34;77.43;95065.30;1699389;82;21160;-68
2021/10/18 04:21:14;;;;;;;30.12;19.00;;;;;;;3.17;77.67;95060.68;1683816;82;21042;-70
2021/10/18 04:23:40;;;;;;;19.50;13.70;;;;;;;3.12;78.41;95061.09;1689096;83;21064;-65
2021/10/18 04:26:07;;;;;;;21.12;14.73;;;;;;;3.21;78.47;95057.96;1688879;83;21490;-69
2021/10/18 04:28:34;;;;;;;19.15;14.28;;;;;;;3.19;78.47;95061.06;1695269;83;21546;-67
2021/10/18 04:31:00;;;;;;;20.00;15.00;;;;;;;3.27;78.77;95059.09;1706072;83;21195;-69
2021/10/18 04:33:27;;;;;;;19.45;14.30;;;;;;;3.41;78.59;95057.70;1702610;83;20956;-68
2021/10/18 04:35:54;;;;;;;16.60;13.22;;;;;;;3.48;78.29;95059.03;1704744;83;21114;-68
2021/10/18 04:38:20;;;;;;;19.12;13.48;;;;;;;3.49;78.06;95059.41;1692814;83;21086;-68
2021/10/18 04:40:47;;;;;;;17.17;12.13;;;;;;;3.46;77.91;95065.45;1706074;83;21126;-68
2021/10/18 04:43:14;;;;;;;13.78;10.30;;;;;;;3.41;78.00;95065.26;1716852;83;22005;-67
2021/10/18 04:45:40;;;;;;;16.30;11.60;;;;;;;3.46;78.17;95070.89;1694851;83;21084;-69
2021/10/18 04:48:07;;;;;;;20.32;14.13;;;;;;;3.49;78.08;95074.36;1689825;83;20992;-68
2021/10/18 04:50:35;;;;;;;20.27;14.78;;;;;;;3.60;78.01;95076.47;1700863;83;21024;-69
2021/10/18 04:53:01;;;;;;;22.62;14.33;;;;;;;3.67;77.67;95077.80;1687486;83;21026;-69
2021/10/18 04:55:28;;;;;;;20.92;14.55;;;;;;;3.68;77.32;95077.98;1697139;83;21132;-69
2021/10/18 04:57:58;;;;;;;16.67;13.00;;;;;;;3.71;77.61;95086.70;1702764;83;21003;-69
2021/10/18 05:00:26;;;;;;;17.00;11.25;;;;;;;3.81;77.45;95089.20;1704105;83;21048;-70
2021/10/18 05:02:53;;;;;;;14.47;11.22;;;;;;;3.85;76.89;95097.54;1689673;83;21010;-71
2021/10/18 05:05:21;;;;;;;16.62;11.48;;;;;;;3.82;76.64;95100.27;1695333;83;21582;-72
2021/10/18 05:08:09;;;;;;;20.17;11.35;;;;;;;3.82;76.80;95104.34;1686468;83;21310;-69
2021/10/18 05:10:38;;;;;;;25.25;11.73;;;;;;;3.90;76.55;95104.52;1694789;83;21633;-68
2021/10/18 05:13:05;;;;;;;18.73;13.13;;;;;;;3.97;76.43;95102.55;1706636;82;21076;-68
2021/10/18 05:15:33;;;;;;;24.72;12.65;;;;;;;4.01;76.00;95114.76;1692542;83;21594;-67
2021/10/18 05:18:02;;;;;;;18.55;13.83;;;;;;;3.93;75.92;95107.23;1690618;82;20966;-69
2021/10/18 05:20:29;;;;;;;17.67;12.30;;;;;;;3.82;76.04;95118.74;1681306;82;21882;-67
2021/10/18 05:22:56;;;;;;;16.90;12.20;;;;;;;3.76;76.24;95120.90;1696534;82;21654;-69
2021/10/18 05:25:23;;;;;;;70.62;40.88;;;;;;;3.69;76.29;95120.94;1693394;82;21101;-64
2021/10/18 05:27:50;;;;;;;30.00;20.20;;;;;;;3.69;76.84;95132.58;1706693;83;21046;-67
2021/10/18 05:30:19;;;;;;;22.62;16.60;;;;;;;3.76;76.61;95140.73;1705024;82;21243;-69
2021/10/18 05:32:46;;;;;;;17.98;13.28;;;;;;;3.74;76.59;95141.72;1692374;83;21167;-65
2021/10/18 05:35:12;;;;;;;14.90;12.03;;;;;;;3.71;76.57;95146.56;1703184;83;21047;-66
2021/10/18 05:37:43;;;;;;;14.93;12.03;;;;;;;3.65;76.56;95146.78;1692557;83;21122;-67
2021/10/18 05:40:11;;;;;;;20.23;13.20;;;;;;;3.56;76.75;95152.44;1689952;83;21097;-65
2021/10/18 05:42:38;;;;;;;17.52;12.30;;;;;;;3.54;77.07;95158.27;1693973;83;20958;-67
2021/10/18 05:45:06;;;;;;;18.77;13.90;;;;;;;3.62;77.20;95154.37;1699628;82;21128;-67
2021/10/18 05:47:34;;;;;;;28.07;13.78;;;;;;;3.68;77.26;95158.83;1701872;82;21077;-67
2021/10/18 05:50:00;;;;;;;18.27;13.45;;;;;;;3.80;77.08;95159.18;1696164;82;21114;-61
2021/10/18 05:52:28;;;;;;;17.30;13.60;;;;;;;3.82;76.61;95148.67;1704667;83;21115;-68
2021/10/18 05:54:57;;;;;;;16.17;12.65;;;;;;;3.81;76.55;95149.05;1700159;82;21002;-69
2021/10/18 05:57:25;;;;;;;22.13;14.05;;;;;;;3.83;76.40;95151.58;1702728;83;21138;-60
2021/10/18 05:59:53;;;;;;;23.32;14.60;;;;;;;3.79;76.31;95162.28;1677781;83;21011;-59
2021/10/18 06:02:20;;;;;;;22.95;16.37;;;;;;;3.77;76.33;95157.25;1690955;82;21210;-61
2021/10/18 06:04:48;;;;;;;26.97;17.67;;;;;;;3.80;76.34;95157.82;1694975;81;21562;-66
2021/10/18 06:07:15;;;;;;;23.27;15.60;;;;;;;3.86;76.56;95165.76;1696280;82;21040;-66
2021/10/18 06:09:42;;;;;;;25.95;18.02;;;;;;;3.94;76.82;95165.94;1680509;82;21947;-68
2021/10/18 06:12:10;;;;;;;23.47;17.17;;;;;;;4.03;76.79;95171.73;1691917;82;21607;-65
2021/10/18 06:14:37;;;;;;;21.85;16.00;;;;;;;4.15;76.55;95176.74;1701699;81;21027;-60
2021/10/18 06:17:03;;;;;;;22.45;14.87;;;;;;;4.31;76.55;95171.62;1702932;81;21140;-68
2021/10/18 06:19:30;;;;;;;20.88;15.13;;;;;;;4.51;76.18;95174.03;1694170;82;21063;-65
2021/10/18 06:21:59;;;;;;;33.23;20.23;;;;;;;4.65;75.49;95176.69;1689967;83;21250;-65
2021/10/18 06:24:29;;;;;;;21.33;15.13;;;;;;;4.67;74.93;95174.34;1684893;82;21107;-63
2021/10/18 06:26:55;;;;;;;19.10;14.13;;;;;;;4.64;74.47;95179.19;1701748;83;21099;-62
2021/10/18 06:29:21;;;;;;;18.52;16.30;;;;;;;4.59;74.69;95175.53;1690962;82;21112;-69
2021/10/18 06:31:48;;;;;;;17.35;14.85;;;;;;;4.61;74.37;95173.19;1688126;82;21191;-69
2021/10/18 06:34:14;;;;;;;16.97;14.23;;;;;;;4.59;74.31;95175.53;1692588;82;21121;-64
2021/10/18 06:36:41;;;;;;;19.42;15.70;;;;;;;4.62;74.31;95176.70;1695503;82;21047;-64
2021/10/18 06:39:08;;;;;;;20.50;14.28;;;;;;;4.70;74.15;95179.55;1673902;82;21122;-59
2021/10/18 06:41:35;;;;;;;64.22;34.95;;;;;;;4.77;73.97;95181.66;1690969;81;21018;-63
2021/10/18 06:44:02;;;;;;;49.03;29.55;;;;;;;4.81;73.82;95190.58;1689916;82;21039;-57
2021/10/18 06:46:29;;;;;;;38.02;19.32;;;;;;;4.87;73.71;95184.12;1682557;82;21342;-63
2021/10/18 06:48:55;;;;;;;29.52;17.95;;;;;;;5.04;73.86;95190.83;1694076;83;21208;-64
2021/10/18 06:51:22;;;;;;;25.52;16.52;;;;;;;5.25;73.58;95184.59;1699743;82;21471;-63
2021/10/18 06:53:53;;;;;;;26.52;17.37;;;;;;;5.44;73.05;95186.02;1688771;82;22309;-66
2021/10/18 06:56:17;;;;;;;23.70;17.35;;;;;;;5.60;72.44;95190.35;1697609;81;21966;-68
2021/10/18 06:58:44;;;;;;;25.10;17.48;;;;;;;5.79;72.14;95191.17;1701060;81;21114;-67
2021/10/18 07:01:11;;;;;;;28.65;18.07;;;;;;;6.04;71.42;95191.67;1691250;82;21153;-66
2021/10/18 07:03:39;;;;;;;26.27;17.37;;;;;;;6.24;70.88;95189.30;1697350;82;21010;-63
2021/10/18 07:06:07;;;;;;;23.27;15.03;;;;;;;6.43;70.23;95188.67;1690982;82;21056;-62
2021/10/18 07:08:35;;;;;;;19.95;15.43;;;;;;;6.64;69.55;95191.70;1698458;81;20987;-58
2021/10/18 07:11:01;;;;;;;19.57;14.78;;;;;;;6.72;68.50;95192.56;1692037;83;21102;-60
2021/10/18 07:13:28;;;;;;;18.45;14.23;;;;;;;6.76;68.08;95185.69;1705789;81;21027;-60
2021/10/18 07:15:55;;;;;;;26.52;18.95;;;;;;;6.70;67.78;95188.72;1699324;82;21010;-67
2021/10/18 07:18:22;;;;;;;31.02;19.67;;;;;;;6.67;68.04;95186.81;1695207;81;21024;-64
2021/10/18 07:20:48;;;;;;;28.60;16.55;;;;;;;6.80;68.11;95187.20;1693686;82;21494;-58
2021/10/18 07:23:15;;;;;;;35.15;18.27;;;;;;;6.90;67.11;95188.23;1695933;81;21115;-60
2021/10/18 07:25:43;;;;;;;25.17;16.95;;;;;;;6.78;66.98;95184.69;1688872;82;22117;-60
2021/10/18 07:28:10;;;;;;;30.25;18.62;;;;;;;6.68;67.05;95188.36;1690221;82;20989;-61
2021/10/18 07:30:38;;;;;;;28.95;18.57;;;;;;;6.59;67.16;95185.34;1703271;82;21062;-66
2021/10/18 07:33:05;;;;;;;25.95;17.80;;;;;;;6.46;67.46;95188.42;1698359;82;21612;-65
2021/10/18 07:35:34;;;;;;;31.77;19.17;;;;;;;6.37;67.70;95185.44;1696332;82;21337;-66
2021/10/18 07:38:00;;;;;;;22.62;15.88;;;;;;;6.34;68.02;95196.58;1686549;82;21086;-64
2021/10/18 07:40:28;;;;;;;24.77;15.60;;;;;;;6.43;68.10;95194.72;1680492;82;21017;-62
2021/10/18 07:42:56;;;;;;;24.55;16.73;;;;;;;6.40;68.10;95192.81;1707081;81;21026;-63
2021/10/18 07:45:23;;;;;;;31.37;14.75;;;;;;;6.40;68.33;95203.16;1713062;81;21521;-68
2021/10/18 07:47:50;;;;;;;40.45;26.60;;;;;;;6.42;67.99;95200.00;1702918;82;21112;-66
2021/10/18 07:50:16;;;;;;;54.80;32.00;;;;;;;6.40;68.28;95192.81;1700549;81;21217;-63
2021/10/18 07:52:44;;;;;;;55.38;35.80;;;;;;;6.47;68.66;95208.53;1655285;83;21380;-61
2021/10/18 07:55:17;;;;;;;37.73;24.37;;;;;;;6.54;68.67;95200.23;1690109;82;21110;-64
2021/10/18 07:57:43;;;;;;;28.32;19.62;;;;;;;6.61;68.74;95204.83;1688973;82;21074;-58
2021/10/18 08:00:11;;;;;;;27.07;20.00;;;;;;;6.67;68.45;95198.50;1685992;82;21949;-64
2021/10/18 08:02:38;;;;;;;23.25;15.75;;;;;;;6.72;68.26;95202.75;1695189;81;21171;-69
2021/10/18 08:05:06;;;;;;;24.12;13.15;;;;;;;6.81;68.33;95195.58;1691707;83;21154;-62
2021/10/18 08:07:37;;;;;;;21.90;12.55;;;;;;;6.92;67.83;95196.19;1690609;82;21082;-64
2021/10/18 08:10:07;;;;;;;16.45;13.32;;;;;;;7.05;67.71;95204.02;1696643;81;21003;-61
2021/10/18 08:12:36;;;;;;;24.67;13.50;;;;;;;7.29;67.49;95194.07;1685373;83;21132;-60
2021/10/18 08:15:04;;;;;;;22.60;15.88;;;;;;;7.55;67.17;95190.50;1684190;82;21542;-64
2021/10/18 08:17:33;;;;;;;29.07;16.50;;;;;;;7.73;66.92;95190.97;1683514;81;21058;-63
2021/10/18 08:19:59;;;;;;;24.60;14.23;;;;;;;7.91;66.87;95187.94;1683407;83;21087;-60
2021/10/18 08:22:26;;;;;;;18.57;15.45;;;;;;;8.11;66.46;95185.99;1687106;82;21451;-64
2021/10/18 08:24:53;;;;;;;18.73;13.30;;;;;;;8.31;65.91;95197.19;1694356;82;21123;-60
2021/10/18 08:27:19;;;;;;;20.23;14.58;;;;;;;8.41;65.36;95194.06;1694039;82;21033;-61
2021/10/18 08:29:46;;;;;;;19.65;14.35;;;;;;;8.40;65.04;95184.30;1714335;81;21140;-66
2021/10/18 08:32:13;;;;;;;19.32;13.45;;;;;;;8.42;65.41;95181.90;1700577;81;21031;-70
2021/10/18 08:34:40;;;;;;;23.10;15.35;;;;;;;8.41;64.82;95185.22;1691466;82;21719;-62
2021/10/18 08:37:07;;;;;;;22.37;15.38;;;;;;;8.44;64.86;95187.73;1694176;83;21185;-61
2021/10/18 08:42:29;;;;;;;24.45;13.48;;;;;;;8.70;64.16;95175.81;1703069;82;21881;-63
2021/10/18 08:44:55;;;;;;;19.02;14.65;;;;;;;8.85;63.70;95172.36;1685123;82;21094;-59
2021/10/18 08:47:26;;;;;;;23.45;15.32;;;;;;;8.78;63.62;95171.13;1704542;81;20982;-63
2021/10/18 08:49:54;;;;;;;23.70;15.35;;;;;;;8.72;63.87;95176.94;1683553;82;21145;-59
2021/10/18 08:52:21;;;;;;;22.58;14.25;;;;;;;8.81;63.68;95168.89;1694468;82;21295;-62
2021/10/18 08:54:48;;;;;;;25.62;15.95;;;;;;;8.89;63.46;95171.05;1702727;81;21041;-65
2021/10/18 08:57:16;;;;;;;24.43;15.55;;;;;;;8.90;63.43;95156.75;1700813;82;21533;-66
2021/10/18 08:59:43;;;;;;;19.55;14.68;;;;;;;8.96;63.32;95158.57;1692195;82;21549;-64
2021/10/18 09:02:10;;;;;;;25.50;16.52;;;;;;;9.04;63.26;95152.32;1699094;81;21120;-66
2021/10/18 09:04:39;;;;;;;20.48;15.05;;;;;;;9.11;63.29;95157.64;1678153;83;21152;-68
2021/10/18 09:07:16;;;;;;;24.87;16.70;;;;;;;9.17;63.47;95162.78;1692661;81;21073;-64
2021/10/18 09:09:50;;;;;;;23.10;14.98;;;;;;;9.27;63.13;95163.14;1692566;81;21203;-69
2021/10/18 09:12:31;;;;;;;26.07;16.23;;;;;;;9.29;62.67;95165.61;1701602;82;21503;-64
2021/10/18 09:15:24;;;;;;;28.40;16.75;;;;;;;9.19;62.74;95159.00;1684499;83;22449;-68
2021/10/18 09:17:59;;;;;;;31.73;16.30;;;;;;;9.00;63.16;95154.35;1681478;83;22273;-67
2021/10/18 09:20:35;;;;;;;31.27;17.87;;;;;;;8.94;63.55;95150.58;1679789;82;21512;-64
2021/10/18 09:23:29;;;;;;;30.68;17.15;;;;;;;8.91;63.83;95151.44;1696512;82;21010;-68
2021/10/18 09:26:02;;;;;;;23.70;15.18;;;;;;;9.00;63.88;95150.23;1698733;81;21039;-68
2021/10/18 09:28:31;;;;;;;23.70;16.20;;;;;;;9.16;63.69;95145.55;1696552;83;21515;-62
2021/10/18 09:30:57;;;;;;;24.50;16.30;;;;;;;9.35;63.15;95148.03;1686882;83;21466;-67
2021/10/18 09:33:35;;;;;;;27.13;15.80;;;;;;;9.43;62.70;95135.08;1693532;81;21492;-68
2021/10/18 09:36:04;;;;;;;21.40;14.55;;;;;;;9.51;62.54;95135.09;1694011;82;21003;-69
2021/10/18 09:38:31;;;;;;;23.85;14.73;;;;;;;9.60;62.30;95133.10;1697317;82;21073;-72
2021/10/18 09:41:00;;;;;;;20.32;13.95;;;;;;;9.67;62.04;95134.28;1704452;82;21146;-63
2021/10/18 10:51:36;;;;;;;28.83;15.72;;;;;;;12.56;53.34;95049.25;1636866;85;21146;-67
2021/10/18 10:53:59;;;;;;;28.35;16.73;;;;;;;12.57;53.37;95048.03;1641038;84;21062;-62
2021/10/18 10:56:38;;;;;;;25.57;15.88;;;;;;;12.60;53.35;95049.13;1647296;85;21025;-68
2021/10/18 10:59:21;;;;;;;26.15;14.83;;;;;;;12.70;52.98;95038.30;1645961;86;21116;-69
2021/10/18 11:01:51;;;;;;;;;;;;;;;12.86;52.77;95038.06;1615434;85;21084;-63
2021/10/18 11:04:36;;;;;;;19.43;11.80;;;;;;;12.96;51.72;95036.89;1645758;85;21230;-65
2021/10/18 11:07:12;;;;;;;22.15;12.65;;;;;;;12.99;51.23;95022.95;1620189;85;21126;-71
2021/10/18 11:09:50;;;;;;;21.33;12.15;;;;;;;13.11;50.50;95026.19;1638173;85;21046;-65
2021/10/18 11:12:25;;;;;;;19.25;11.97;;;;;;;13.27;49.95;95021.78;1606622;87;21036;-67
2021/10/18 11:15:07;;;;;;;16.50;10.43;;;;;;;13.40;49.39;95027.17;1639588;85;21600;-64
2021/10/18 11:17:52;;;;;;;16.95;10.35;;;;;;;13.50;48.60;95025.38;1644101;85;21148;-61
2021/10/18 11:20:24;;;;;;;22.22;11.40;;;;;;;13.52;48.04;95015.22;1656784;84;21235;-59
2021/10/18 11:23:00;;;;;;;21.57;10.48;;;;;;;13.50;47.68;95014.91;1652874;85;26135;-69
2021/10/18 11:25:29;;;;;;;21.20;12.40;;;;;;;13.52;47.90;95013.23;1646632;84;21053;-64
2021/10/18 11:28:02;;;;;;;17.27;11.75;;;;;;;13.47;48.10;95013.08;1642166;85;21014;-65
2021/10/18 11:30:31;;;;;;;20.48;13.03;;;;;;;13.38;48.27;95016.59;1647843;84;21179;-63
2021/10/18 11:33:06;;;;;;;22.35;14.25;;;;;;;13.25;48.58;95006.91;1653689;84;21105;-64
2021/10/18 11:35:34;;;;;;;17.40;12.88;;;;;;;13.20;48.99;95007.48;1624924;85;21002;-71
2021/10/18 11:38:14;;;;;;;27.85;13.80;;;;;;;13.23;49.49;94996.92;1644121;84;21014;-61
2021/10/18 11:40:44;;;;;;;22.82;13.95;;;;;;;13.28;49.83;95002.59;1654970;84;21089;-64
2021/10/18 11:43:14;;;;;;;22.05;15.15;;;;;;;13.39;49.13;94999.38;1636081;84;21172;-64
2021/10/18 11:45:43;;;;;;;19.85;14.15;;;;;;;13.51;49.40;94997.09;1638376;84;21052;-69
2021/10/18 11:48:20;;;;;;;32.73;15.80;;;;;;;13.66;49.52;95000.80;1642872;84;21041;-67
2021/10/18 11:50:52;;;;;;;25.60;16.02;;;;;;;13.78;48.91;94999.89;1629805;85;21081;-71
2021/10/18 11:53:43;;;;;;;19.95;13.30;;;;;;;13.82;48.47;94994.97;1653994;84;21662;-67
2021/10/18 11:56:19;;;;;;;24.20;15.83;;;;;;;13.90;48.38;94998.95;1642502;85;21175;-69
2021/10/18 11:58:46;;;;;;;27.37;15.68;;;;;;;13.87;48.15;94995.73;1643067;86;21086;-67
2021/10/18 12:01:18;;;;;;;21.17;15.30;;;;;;;13.85;47.33;94996.17;1639570;84;21089;-62
2021/10/18 12:03:44;;;;;;;24.25;13.55;;;;;;;13.87;47.38;94996.51;1647339;84;21163;-64
2021/10/18 12:06:12;;;;;;;24.47;12.40;;;;;;;13.82;46.64;94995.72;1630441;85;21602;-63
2021/10/18 12:08:43;;;;;;;28.50;14.53;;;;;;;13.64;46.49;94992.20;1651387;85;21243;-62
2021/10/18 12:11:11;;;;;;;22.40;12.40;;;;;;;13.53;46.99;94997.41;1637464;85;21062;-63
2021/10/18 12:13:40;;;;;;;28.83;12.40;;;;;;;13.48;47.23;94995.27;1625803;85;21186;-65
2021/10/18 12:16:14;;;;;;;23.12;11.97;;;;;;;13.41;47.09;94998.34;1631029;85;21145;-63
2021/10/18 12:18:51;;;;;;;13.70;9.33;;;;;;;13.29;47.28;94996.47;1648210;84;21476;-63
2021/10/18 12:21:32;;;;;;;23.90;13.43;;;;;;;13.16;47.08;94993.84;1652267;84;21092;-69
2021/10/18 12:24:02;;;;;;;33.42;12.80;;;;;;;13.07;47.13;94990.28;1646900;84;21086;-64
2021/10/18 12:26:42;;;;;;;21.82;12.30;;;;;;;13.03;47.57;94997.92;1640638;85;21032;-67
2021/10/18 12:29:13;;;;;;;44.55;15.93;;;;;;;12.98;47.74;94997.16;1633121;85;21738;-66
2021/10/18 12:31:42;;;;;;;35.15;16.00;;;;;;;12.94;48.32;95000.67;1655401;84;21058;-61
2021/10/18 12:34:14;;;;;;;27.07;13.08;;;;;;;12.91;48.72;94996.80;1634368;85;21154;-65
2021/10/18 12:37:10;;;;;;;22.48;13.00;;;;;;;12.90;48.57;94993.87;1647794;84;21065;-65
2021/10/18 12:39:59;;;;;;;22.30;13.28;;;;;;;12.94;48.88;94992.39;1634951;84;21091;-67
2021/10/18 12:42:33;;;;;;;22.62;12.95;;;;;;;12.93;48.87;94992.23;1652332;84;21057;-61